createdAt,value
2023-02-26T00:02:48.641Z,20.40
2023-02-26T00:06:00.844Z,20.50
2023-02-26T00:09:08.807Z,20.40
2023-02-26T00:12:17.694Z,20.50
2023-02-26T00:15:28.005Z,20.50
2023-02-26T00:18:36.429Z,20.50
2023-02-26T00:21:44.934Z,20.50
2023-02-26T00:24:53.128Z,20.50
2023-02-26T00:28:01.624Z,20.50
2023-02-26T00:31:11.935Z,20.50
2023-02-26T00:34:20.611Z,20.50
2023-02-26T00:37:33.072Z,20.60
2023-02-26T00:40:42.741Z,20.60
2023-02-26T00:43:51.152Z,20.60
2023-02-26T00:47:01.968Z,20.60
2023-02-26T00:50:15.347Z,20.60
2023-02-26T00:53:26.187Z,20.60
2023-02-26T00:56:34.055Z,20.70
2023-02-26T00:59:42.584Z,20.70
2023-02-26T01:02:52.461Z,20.70
2023-02-26T01:06:00.861Z,20.70
2023-02-26T01:09:12.174Z,20.70
2023-02-26T01:12:21.195Z,20.70
2023-02-26T01:15:29.870Z,20.70
2023-02-26T01:18:42.591Z,20.70
2023-02-26T01:21:52.118Z,20.70
2023-02-26T01:25:02.944Z,20.70
2023-02-26T01:28:11.480Z,20.70
2023-02-26T01:31:27.365Z,20.70
2023-02-26T01:34:39.032Z,20.70
2023-02-26T01:37:51.512Z,20.70
2023-02-26T01:41:26.187Z,20.60
2023-02-26T01:44:36.365Z,20.60
2023-02-26T01:47:49.223Z,20.60
2023-02-26T01:50:58.605Z,20.60
2023-02-26T01:54:07.661Z,20.50
2023-02-26T01:57:17.036Z,20.50
2023-02-26T02:00:25.425Z,20.50
2023-02-26T02:03:36.393Z,20.40
2023-02-26T02:06:46.045Z,20.40
2023-02-26T02:09:54.006Z,20.40
2023-02-26T02:13:04.656Z,20.40
2023-02-26T02:16:19.555Z,20.40
2023-02-26T02:19:50.684Z,20.30
2023-02-26T02:23:09.823Z,20.30
2023-02-26T02:26:41.755Z,20.30
2023-02-26T02:30:11.411Z,20.30
2023-02-26T02:33:24.881Z,20.30
2023-02-26T02:36:35.354Z,20.30
2023-02-26T02:39:45.815Z,20.30
2023-02-26T02:42:55.391Z,20.20
2023-02-26T02:46:05.178Z,20.20
2023-02-26T02:49:16.211Z,20.20
2023-02-26T02:52:27.715Z,20.20
2023-02-26T02:55:37.755Z,20.20
2023-02-26T02:58:50.211Z,20.20
2023-02-26T03:02:00.943Z,20.10
2023-02-26T03:05:10.912Z,20.10
2023-02-26T03:08:19.260Z,20.10
2023-02-26T03:11:27.813Z,20.10
2023-02-26T03:14:36.023Z,20.10
2023-02-26T03:17:49.452Z,20.10
2023-02-26T03:21:03.206Z,20.10
2023-02-26T03:24:15.499Z,20.10
2023-02-26T03:27:25.768Z,20.10
2023-02-26T03:30:35.920Z,20.10
2023-02-26T03:33:51.418Z,20.20
2023-02-26T03:37:03.198Z,20.20
2023-02-26T03:40:13.240Z,20.20
2023-02-26T03:43:23.331Z,20.20
2023-02-26T03:46:33.681Z,20.20
2023-02-26T03:49:43.713Z,20.20
2023-02-26T03:52:53.662Z,20.30
2023-02-26T03:56:14.885Z,20.30
2023-02-26T03:59:37.948Z,20.30
2023-02-26T04:03:10.360Z,20.30
2023-02-26T04:06:20.452Z,20.30
2023-02-26T04:09:29.630Z,20.30
2023-02-26T04:12:37.539Z,20.40
2023-02-26T04:15:48.117Z,20.40
2023-02-26T04:18:56.838Z,20.40
2023-02-26T04:22:05.303Z,20.40
2023-02-26T04:25:14.901Z,20.40
2023-02-26T04:28:23.331Z,20.40
2023-02-26T04:31:31.779Z,20.40
2023-02-26T04:34:40.644Z,20.50
2023-02-26T04:37:49.355Z,20.50
2023-02-26T04:40:59.159Z,20.50
2023-02-26T04:44:06.960Z,20.50
2023-02-26T04:47:17.040Z,20.50
2023-02-26T04:50:25.554Z,20.60
2023-02-26T04:53:34.706Z,20.60
2023-02-26T04:56:43.972Z,20.60
2023-02-26T04:59:52.004Z,20.60
2023-02-26T05:03:03.965Z,20.60
2023-02-26T05:06:12.030Z,20.60
2023-02-26T05:09:20.136Z,20.70
2023-02-26T05:12:29.532Z,20.70
2023-02-26T05:15:37.528Z,20.70
2023-02-26T05:18:45.520Z,20.70
2023-02-26T05:21:53.304Z,20.70
2023-02-26T05:25:01.924Z,20.70
2023-02-26T05:28:11.202Z,20.80
2023-02-26T05:31:19.869Z,20.80
2023-02-26T05:34:28.026Z,20.70
2023-02-26T05:37:36.166Z,20.80
2023-02-26T05:40:44.284Z,20.80
2023-02-26T05:43:53.692Z,20.80
2023-02-26T05:47:01.909Z,20.80
2023-02-26T05:50:12.904Z,20.80
2023-02-26T05:53:20.720Z,20.80
2023-02-26T05:56:28.552Z,20.70
2023-02-26T05:59:38.979Z,20.70
2023-02-26T06:02:46.782Z,20.70
2023-02-26T06:05:54.524Z,20.70
2023-02-26T06:09:02.539Z,20.70
2023-02-26T06:12:10.719Z,20.70
2023-02-26T06:15:20.413Z,20.60
2023-02-26T06:18:28.629Z,20.70
2023-02-26T06:21:36.538Z,20.70
2023-02-26T06:24:44.885Z,20.60
2023-02-26T06:27:52.986Z,20.60
2023-02-26T06:31:02.137Z,20.60
2023-02-26T06:34:10.094Z,20.60
2023-02-26T06:37:18.235Z,20.60
2023-02-26T06:40:26.327Z,20.60
2023-02-26T06:43:34.218Z,20.60
2023-02-26T06:46:43.379Z,20.60
2023-02-26T06:49:51.066Z,20.60
2023-02-26T06:52:58.848Z,20.60
2023-02-26T06:56:06.955Z,20.60
2023-02-26T06:59:15.384Z,20.70
2023-02-26T07:02:24.791Z,20.70
2023-02-26T07:05:32.900Z,20.70
2023-02-26T07:08:40.883Z,20.80
2023-02-26T07:11:49.053Z,20.90
2023-02-26T07:14:57.135Z,21.00
2023-02-26T07:18:06.843Z,21.10
2023-02-26T07:21:14.750Z,21.10
2023-02-26T07:24:22.830Z,21.10
2023-02-26T07:27:31.077Z,21.10
2023-02-26T07:30:42.172Z,21.30
2023-02-26T07:33:51.616Z,21.30
2023-02-26T07:36:59.880Z,21.40
2023-02-26T07:40:09.190Z,21.30
2023-02-26T07:43:16.888Z,21.30
2023-02-26T07:46:25.303Z,21.30
2023-02-26T07:49:34.874Z,21.20
2023-02-26T07:52:42.836Z,21.20
2023-02-26T07:55:50.900Z,21.20
2023-02-26T07:58:59.081Z,21.20
2023-02-26T08:02:07.157Z,21.20
2023-02-26T08:05:16.756Z,21.20
2023-02-26T08:08:24.580Z,21.30
2023-02-26T08:11:32.979Z,21.30
2023-02-26T08:14:41.871Z,21.30
2023-02-26T08:17:50.000Z,21.30
2023-02-26T08:20:59.408Z,21.30
2023-02-26T08:24:07.476Z,21.30
2023-02-26T08:27:15.245Z,21.30
2023-02-26T08:30:23.276Z,21.30
2023-02-26T08:33:31.427Z,21.30
2023-02-26T08:36:40.482Z,21.30
2023-02-26T08:39:48.512Z,21.30
2023-02-26T08:42:57.596Z,21.30
2023-02-26T08:46:06.959Z,21.30
2023-02-26T08:49:15.201Z,21.30
2023-02-26T08:52:24.393Z,21.30
2023-02-26T08:55:32.384Z,21.30
2023-02-26T08:58:40.579Z,21.40
2023-02-26T09:01:48.819Z,21.30
2023-02-26T09:04:56.568Z,21.30
2023-02-26T09:08:06.059Z,21.30
2023-02-26T09:11:14.278Z,21.40
2023-02-26T09:14:22.180Z,21.30
2023-02-26T09:17:29.901Z,21.40
2023-02-26T09:20:37.869Z,21.30
2023-02-26T09:23:47.024Z,21.30
2023-02-26T09:26:55.139Z,21.30
2023-02-26T09:30:02.812Z,21.30
2023-02-26T09:33:10.923Z,21.30
2023-02-26T09:36:19.031Z,21.30
2023-02-26T09:39:28.420Z,21.30
2023-02-26T09:42:45.806Z,21.30
2023-02-26T09:45:53.633Z,21.30
2023-02-26T09:49:06.806Z,21.30
2023-02-26T09:52:19.534Z,21.30
2023-02-26T09:55:31.536Z,21.30
2023-02-26T09:58:40.165Z,21.20
2023-02-26T10:01:52.814Z,21.30
2023-02-26T10:05:06.420Z,21.30
2023-02-26T10:08:16.636Z,21.30
2023-02-26T10:11:30.300Z,21.30
2023-02-26T10:14:39.805Z,21.30
2023-02-26T10:17:55.327Z,21.30
2023-02-26T10:21:08.371Z,21.20
2023-02-26T10:24:19.277Z,21.20
2023-02-26T10:27:44.851Z,21.20
2023-02-26T10:30:55.389Z,21.20
2023-02-26T10:34:14.502Z,21.20
2023-02-26T10:37:25.083Z,21.20
2023-02-26T10:40:35.578Z,21.20
2023-02-26T10:43:47.334Z,21.20
2023-02-26T10:46:57.770Z,21.20
2023-02-26T10:50:06.830Z,21.20
2023-02-26T10:53:14.557Z,21.20
2023-02-26T10:56:23.739Z,21.20
2023-02-26T10:59:32.967Z,21.10
2023-02-26T11:02:42.691Z,21.10
2023-02-26T11:05:50.641Z,21.10
2023-02-26T11:08:59.134Z,21.10
2023-02-26T11:12:07.864Z,21.10
2023-02-26T11:15:19.483Z,21.10
2023-02-26T11:18:30.788Z,21.00
2023-02-26T11:21:40.526Z,21.10
2023-02-26T11:24:48.886Z,21.10
2023-02-26T11:28:01.988Z,21.10
2023-02-26T11:31:13.079Z,21.10
2023-02-26T11:34:23.610Z,21.00
2023-02-26T11:37:36.074Z,21.00
2023-02-26T11:40:44.007Z,21.00
2023-02-26T11:43:59.571Z,21.00
2023-02-26T11:47:12.840Z,21.00
2023-02-26T11:50:22.933Z,21.00
2023-02-26T11:53:33.324Z,21.00
2023-02-26T11:56:43.527Z,21.00
2023-02-26T11:59:53.739Z,21.00
2023-02-26T12:03:04.434Z,21.00
2023-02-26T12:06:17.268Z,21.00
2023-02-26T12:09:25.621Z,20.90
2023-02-26T12:12:41.745Z,20.90
2023-02-26T12:15:53.476Z,20.90
2023-02-26T12:19:06.889Z,20.90
2023-02-26T12:22:31.728Z,20.90
2023-02-26T12:25:46.604Z,20.90
2023-02-26T12:29:11.535Z,20.90
2023-02-26T12:32:38.932Z,20.90
2023-02-26T12:35:57.572Z,20.90
2023-02-26T12:39:12.878Z,20.80
2023-02-26T12:42:26.430Z,20.90
2023-02-26T12:45:43.576Z,20.90
2023-02-26T12:49:08.084Z,20.80
2023-02-26T12:52:44.138Z,20.80
2023-02-26T12:56:02.854Z,20.80
2023-02-26T12:59:32.422Z,20.80
2023-02-26T13:03:17.514Z,20.80
2023-02-26T13:06:46.922Z,20.80
2023-02-26T13:10:01.318Z,20.80
2023-02-26T13:13:21.504Z,20.80
2023-02-26T13:16:38.413Z,20.80
2023-02-26T13:19:48.376Z,20.80
2023-02-26T13:22:57.681Z,20.90
2023-02-26T13:26:09.214Z,20.90
2023-02-26T13:29:18.420Z,20.90
2023-02-26T13:32:27.009Z,20.90
2023-02-26T13:35:37.068Z,20.90
2023-02-26T13:38:51.493Z,20.90
2023-02-26T13:42:04.526Z,20.90
2023-02-26T13:45:30.943Z,21.00
2023-02-26T13:48:43.553Z,21.00
2023-02-26T13:51:53.127Z,21.00
2023-02-26T13:55:01.136Z,21.00
2023-02-26T13:58:30.745Z,21.00
2023-02-26T14:01:50.026Z,21.00
2023-02-26T14:04:59.809Z,21.00
2023-02-26T14:08:29.438Z,21.00
2023-02-26T14:11:45.684Z,21.00
2023-02-26T14:15:35.243Z,21.00
2023-02-26T14:18:51.281Z,21.00
2023-02-26T14:22:00.661Z,21.00
2023-02-26T14:25:14.917Z,21.00
2023-02-26T14:28:47.417Z,21.00
2023-02-26T14:32:05.428Z,21.00
2023-02-26T14:35:16.414Z,21.00
2023-02-26T14:38:26.201Z,21.00
2023-02-26T14:41:36.346Z,21.00
2023-02-26T14:44:45.266Z,21.00
2023-02-26T14:47:53.232Z,21.00
2023-02-26T14:51:10.042Z,21.00
2023-02-26T14:54:28.421Z,21.00
2023-02-26T14:57:40.836Z,21.00
2023-02-26T15:00:51.101Z,21.00
2023-02-26T15:04:26.121Z,20.90
2023-02-26T15:07:48.675Z,20.90
2023-02-26T15:11:15.087Z,20.90
2023-02-26T15:14:46.944Z,20.90
2023-02-26T15:18:15.296Z,20.90
2023-02-26T15:21:30.492Z,20.90
2023-02-26T15:24:39.577Z,20.80
2023-02-26T15:27:47.486Z,20.80
2023-02-26T15:30:55.332Z,20.80
2023-02-26T15:34:03.359Z,20.80
2023-02-26T15:37:19.509Z,20.80
2023-02-26T15:40:29.820Z,20.80
2023-02-26T15:43:37.713Z,20.80
2023-02-26T15:46:48.025Z,20.80
2023-02-26T15:49:56.522Z,20.80
2023-02-26T15:53:05.164Z,20.80
2023-02-26T15:56:19.524Z,20.80
2023-02-26T15:59:28.778Z,20.80
2023-02-26T16:02:37.499Z,20.80
2023-02-26T16:05:45.264Z,20.80
2023-02-26T16:08:53.258Z,20.80
2023-02-26T16:12:05.058Z,20.80
2023-02-26T16:15:14.528Z,20.70
2023-02-26T16:18:24.340Z,20.70
2023-02-26T16:21:33.548Z,20.70
2023-02-26T16:24:41.560Z,20.70
2023-02-26T16:27:52.980Z,20.70
2023-02-26T16:31:01.638Z,20.70
2023-02-26T16:34:29.652Z,20.70
2023-02-26T16:37:37.944Z,20.70
2023-02-26T16:40:45.891Z,20.70
2023-02-26T16:43:57.563Z,20.70
2023-02-26T16:47:05.595Z,20.70
2023-02-26T16:50:17.312Z,20.70
2023-02-26T16:53:25.669Z,20.70
2023-02-26T16:56:35.418Z,20.70
2023-02-26T16:59:44.532Z,20.70
2023-02-26T17:02:52.438Z,20.70
2023-02-26T17:06:01.696Z,20.70
2023-02-26T17:09:10.462Z,20.60
2023-02-26T17:12:19.405Z,20.60
2023-02-26T17:15:31.070Z,20.60
2023-02-26T17:18:38.922Z,20.60
2023-02-26T17:21:48.418Z,20.60
2023-02-26T17:24:56.568Z,20.60
2023-02-26T17:28:05.044Z,20.60
2023-02-26T17:31:15.104Z,20.60
2023-02-26T17:34:23.388Z,20.60
2023-02-26T17:37:33.329Z,20.60
2023-02-26T17:40:42.024Z,20.60
2023-02-26T17:43:50.046Z,20.60
2023-02-26T17:46:59.675Z,20.60
2023-02-26T17:50:14.963Z,20.60
2023-02-26T17:53:24.389Z,20.60
2023-02-26T17:56:32.991Z,20.60
2023-02-26T17:59:40.963Z,20.60
2023-02-26T18:02:51.465Z,20.70
2023-02-26T18:05:59.901Z,20.70
2023-02-26T18:09:08.169Z,20.70
2023-02-26T18:12:16.623Z,20.70
2023-02-26T18:15:24.876Z,20.70
2023-02-26T18:18:34.191Z,20.70
2023-02-26T18:21:42.143Z,20.80
2023-02-26T18:24:50.070Z,20.80
2023-02-26T18:28:00.292Z,20.80
2023-02-26T18:31:09.848Z,20.80
2023-02-26T18:34:19.127Z,20.80
2023-02-26T18:37:28.510Z,20.80
2023-02-26T18:40:36.633Z,20.80
2023-02-26T18:43:44.658Z,20.80
2023-02-26T18:46:52.770Z,20.80
2023-02-26T18:50:02.356Z,20.80
2023-02-26T18:53:10.491Z,20.80
2023-02-26T18:56:18.645Z,20.80
2023-02-26T18:59:26.707Z,20.80
2023-02-26T19:02:35.036Z,20.80
2023-02-26T19:05:44.387Z,20.80
2023-02-26T19:08:52.477Z,20.80
2023-02-26T19:12:00.408Z,20.80
2023-02-26T19:15:09.533Z,20.80
2023-02-26T19:18:17.266Z,20.80
2023-02-26T19:21:27.986Z,20.80
2023-02-26T19:24:36.318Z,20.80
2023-02-26T19:27:44.452Z,20.80
2023-02-26T19:30:55.181Z,20.80
2023-02-26T19:34:03.461Z,20.80
2023-02-26T19:37:13.095Z,20.70
2023-02-26T19:40:21.307Z,20.70
2023-02-26T19:43:29.184Z,20.70
2023-02-26T19:46:37.317Z,20.70
2023-02-26T19:49:45.083Z,20.70
2023-02-26T19:52:55.041Z,20.70
2023-02-26T19:56:02.869Z,20.70
2023-02-26T19:59:11.042Z,20.70
2023-02-26T20:02:18.850Z,20.70
2023-02-26T20:05:26.826Z,20.70
2023-02-26T20:08:36.016Z,20.70
2023-02-26T20:11:43.899Z,20.70
2023-02-26T20:14:52.130Z,20.70
2023-02-26T20:18:00.004Z,20.70
2023-02-26T20:21:09.189Z,20.60
2023-02-26T20:24:19.958Z,20.60
2023-02-26T20:27:27.761Z,20.60
2023-02-26T20:30:35.803Z,20.60
2023-02-26T20:33:43.789Z,20.60
2023-02-26T20:36:55.443Z,20.60
2023-02-26T20:40:06.218Z,20.60
2023-02-26T20:43:14.105Z,20.60
2023-02-26T20:46:22.148Z,20.60
2023-02-26T20:49:30.443Z,20.60
2023-02-26T20:52:38.233Z,20.60
2023-02-26T20:55:47.587Z,20.60
2023-02-26T20:58:55.797Z,20.60
2023-02-26T21:02:03.620Z,20.60
2023-02-26T21:05:12.017Z,20.70
2023-02-26T21:08:20.123Z,20.70
2023-02-26T21:11:30.969Z,20.70
2023-02-26T21:14:38.796Z,20.70
2023-02-26T21:17:46.800Z,20.70
2023-02-26T21:20:54.870Z,20.70
2023-02-26T21:24:03.003Z,20.70
2023-02-26T21:27:12.627Z,20.80
2023-02-26T21:30:20.791Z,20.80
2023-02-26T21:33:28.926Z,20.80
2023-02-26T21:36:37.426Z,20.80
2023-02-26T21:39:46.390Z,20.80
2023-02-26T21:42:55.931Z,20.80
2023-02-26T21:46:05.009Z,20.90
2023-02-26T21:49:13.081Z,20.90
2023-02-26T21:52:21.197Z,20.90
2023-02-26T21:55:28.919Z,20.90
2023-02-26T21:58:38.252Z,20.90
2023-02-26T22:01:46.209Z,20.90
2023-02-26T22:04:54.202Z,20.90
2023-02-26T22:08:02.295Z,20.90
2023-02-26T22:11:10.332Z,20.90
2023-02-26T22:14:19.480Z,20.90
2023-02-26T22:17:27.190Z,20.90
2023-02-26T22:20:34.880Z,20.90
2023-02-26T22:23:42.588Z,20.90
2023-02-26T22:26:50.862Z,20.80
2023-02-26T22:30:00.225Z,20.90
2023-02-26T22:33:08.323Z,20.90
2023-02-26T22:36:16.674Z,20.80
2023-02-26T22:39:24.800Z,20.80
2023-02-26T22:42:33.002Z,20.80
2023-02-26T22:45:42.553Z,20.80
2023-02-26T22:48:50.524Z,20.80
2023-02-26T22:51:58.561Z,20.80
2023-02-26T22:55:07.629Z,20.80
2023-02-26T22:58:15.355Z,20.80
2023-02-26T23:01:25.830Z,20.80
2023-02-26T23:04:34.043Z,20.70
2023-02-26T23:07:41.950Z,20.70
2023-02-26T23:10:50.063Z,20.70
2023-02-26T23:13:58.095Z,20.70
2023-02-26T23:17:09.184Z,20.70
2023-02-26T23:20:18.239Z,20.70
2023-02-26T23:23:26.280Z,20.70
2023-02-26T23:26:34.348Z,20.70
2023-02-26T23:29:43.650Z,20.70
2023-02-26T23:32:54.950Z,20.70
2023-02-26T23:36:02.859Z,20.70
2023-02-26T23:39:10.693Z,20.70
2023-02-26T23:42:18.689Z,20.70
2023-02-26T23:45:26.690Z,20.70
2023-02-26T23:48:36.130Z,20.70
2023-02-26T23:51:44.042Z,20.70
2023-02-26T23:54:52.173Z,20.70
2023-02-26T23:58:00.300Z,20.70
